Time;durP1;ratioP1;P1;durP2;ratioP2;P2;SDS_P1;SDS_P2;PMS_P1;PMS_P2;Temp;Humidity;BMP_temperature;BMP_pressure;BME280_temperature;BME280_humidity;BME280_pressure;Samples;Min_cycle;Max_cycle;Signal;HPM_P1;HPM_P2
2023/07/12 00:05:56;;;;;;;12.80;6.30;;;22.70;99.90;;;;;;12522227;28;20052;-36
2023/07/12 00:11:58;;;;;;;10.70;6.77;;;22.70;99.90;;;;;;12511038;28;20057;-36
2023/07/12 00:18:00;;;;;;;12.85;6.35;;;22.50;99.90;;;;;;12514827;28;20053;-35
2023/07/12 00:24:02;;;;;;;12.63;5.65;;;21.90;99.90;;;;;;12526133;28;20473;-35
2023/07/12 00:30:18;;;;;;;9.15;4.38;;;21.80;99.90;;;;;;12495455;28;20052;-35
2023/07/12 00:36:25;;;;;;;10.82;4.30;;;21.50;99.90;;;;;;12490519;28;20060;-34
2023/07/12 00:42:34;;;;;;;7.40;4.07;;;21.10;99.90;;;;;;12524037;28;20705;-35
2023/07/12 00:48:36;;;;;;;13.40;4.90;;;21.10;99.90;;;;;;12520890;28;20090;-35
2023/07/12 00:54:56;;;;;;;8.50;4.93;;;20.90;99.90;;;;;;12547750;28;20053;-34
2023/07/12 01:01:00;;;;;;;10.20;6.43;;;20.90;99.90;;;;;;12512328;28;20065;-35
2023/07/12 01:07:03;;;;;;;9.73;6.63;;;20.50;99.90;;;;;;12515376;28;20049;-34
2023/07/12 01:13:07;;;;;;;12.60;6.43;;;20.30;99.90;;;;;;12529897;28;20055;-35
2023/07/12 01:19:09;;;;;;;15.50;5.32;;;20.10;99.90;;;;;;12520300;28;20287;-35
2023/07/12 01:25:11;;;;;;;8.38;3.72;;;20.10;99.90;;;;;;12511433;28;20083;-35
2023/07/12 01:31:14;;;;;;;9.00;3.97;;;20.10;99.90;;;;;;12534576;28;20532;-34
2023/07/12 01:37:16;;;;;;;10.68;3.47;;;19.90;99.90;;;;;;12512311;28;20057;-35
2023/07/12 01:43:18;;;;;;;6.28;2.58;;;19.90;99.90;;;;;;12518250;28;20134;-35
2023/07/12 01:49:20;;;;;;;5.33;2.20;;;19.90;99.90;;;;;;12522367;28;20053;-35
2023/07/12 01:55:22;;;;;;;7.75;2.40;;;19.90;99.90;;;;;;12527794;28;20409;-35
2023/07/12 02:01:24;;;;;;;6.78;2.25;;;20.00;99.90;;;;;;12510601;28;20532;-35
2023/07/12 02:07:26;;;;;;;6.38;2.63;;;20.20;99.90;;;;;;12528225;28;20519;-35
2023/07/12 02:13:28;;;;;;;3.92;2.00;;;20.40;99.90;;;;;;12514859;28;20052;-35
2023/07/12 02:19:30;;;;;;;5.90;1.70;;;20.30;99.90;;;;;;12517468;28;20061;-35
2023/07/12 02:25:32;;;;;;;5.10;1.70;;;20.40;99.90;;;;;;12493777;28;20087;-35
2023/07/12 02:31:34;;;;;;;3.13;1.40;;;20.40;99.90;;;;;;12526127;28;20052;-35
2023/07/12 02:37:36;;;;;;;2.67;1.40;;;20.30;99.90;;;;;;12509416;28;20053;-35
2023/07/12 02:43:38;;;;;;;3.78;1.55;;;20.40;99.90;;;;;;12519863;28;20049;-35
2023/07/12 02:49:40;;;;;;;5.03;1.30;;;20.30;99.90;;;;;;12505846;28;20351;-35
2023/07/12 02:55:42;;;;;;;3.03;1.33;;;20.50;99.90;;;;;;12519093;28;20041;-35
2023/07/12 03:01:47;;;;;;;2.65;1.33;;;20.50;99.90;;;;;;12528730;28;20055;-35
2023/07/12 03:07:49;;;;;;;3.97;1.60;;;20.50;99.90;;;;;;12521927;28;20049;-35
2023/07/12 03:13:51;;;;;;;3.63;1.40;;;20.30;99.90;;;;;;12535878;28;20140;-35
2023/07/12 03:19:53;;;;;;;3.28;1.30;;;20.40;99.90;;;;;;12504452;28;20049;-35
2023/07/12 03:25:55;;;;;;;4.25;1.23;;;20.00;99.90;;;;;;12509322;28;20045;-35
2023/07/12 03:31:57;;;;;;;4.18;1.20;;;19.60;99.90;;;;;;12511586;28;20413;-35
2023/07/12 03:37:58;;;;;;;4.97;1.20;;;19.50;99.90;;;;;;12530072;28;20049;-34
2023/07/12 03:44:00;;;;;;;6.78;1.30;;;19.30;99.90;;;;;;12534004;28;20045;-35
2023/07/12 03:50:03;;;;;;;2.63;1.13;;;19.20;99.90;;;;;;12520742;28;20828;-35
2023/07/12 03:56:05;;;;;;;4.10;1.50;;;19.40;99.90;;;;;;12508161;28;20486;-35
2023/07/12 04:02:07;;;;;;;3.80;1.38;;;19.10;99.90;;;;;;12519456;28;20037;-35
2023/07/12 04:08:11;;;;;;;1.88;1.20;;;18.80;99.90;;;;;;12526014;28;20049;-35
2023/07/12 04:14:13;;;;;;;3.42;1.52;;;18.80;99.90;;;;;;12503793;28;20060;-36
2023/07/12 04:20:15;;;;;;;2.20;1.30;;;18.80;99.90;;;;;;12497357;28;20045;-35
2023/07/12 04:26:17;;;;;;;4.60;1.58;;;18.80;99.90;;;;;;12517754;28;20057;-35
2023/07/12 04:32:20;;;;;;;3.43;2.10;;;18.50;99.90;;;;;;12537644;28;20434;-36
2023/07/12 04:38:22;;;;;;;5.60;1.70;;;18.50;99.90;;;;;;12517734;28;20064;-36
2023/07/12 04:44:25;;;;;;;3.88;1.60;;;18.60;99.90;;;;;;12498905;28;20408;-35
2023/07/12 04:50:27;;;;;;;6.13;1.70;;;18.40;99.90;;;;;;12511348;28;20046;-35
2023/07/12 04:56:29;;;;;;;3.55;1.48;;;18.40;99.90;;;;;;12518010;28;20260;-36
2023/07/12 05:02:31;;;;;;;3.83;1.58;;;18.40;99.90;;;;;;12522071;28;20174;-36
2023/07/12 05:08:32;;;;;;;3.55;1.40;;;18.10;99.90;;;;;;12531666;28;20053;-35
2023/07/12 05:14:34;;;;;;;7.53;1.77;;;18.40;99.90;;;;;;12491810;28;20044;-35
2023/07/12 05:20:37;;;;;;;4.60;1.48;;;18.50;99.90;;;;;;12492510;28;20188;-35
2023/07/12 05:26:39;;;;;;;4.05;1.25;;;18.50;99.90;;;;;;12492286;28;20547;-35
2023/07/12 05:32:40;;;;;;;3.67;1.30;;;18.70;99.90;;;;;;12502806;28;20052;-35
2023/07/12 05:38:42;;;;;;;1.75;0.98;;;18.70;99.90;;;;;;12518668;28;20092;-35
2023/07/12 05:44:44;;;;;;;3.85;1.08;;;18.90;99.90;;;;;;12520067;28;20056;-35
2023/07/12 05:50:51;;;;;;;2.65;1.10;;;18.80;99.90;;;;;;12510950;28;20050;-35
2023/07/12 05:56:53;;;;;;;3.08;1.10;;;18.90;99.90;;;;;;12507927;28;20083;-35
2023/07/12 06:02:56;;;;;;;6.80;1.15;;;18.90;99.90;;;;;;12523038;28;20051;-35
2023/07/12 06:08:58;;;;;;;1.92;0.90;;;19.00;99.90;;;;;;12509052;28;20052;-35
2023/07/12 06:15:00;;;;;;;2.10;0.88;;;18.80;99.90;;;;;;12489290;28;20044;-35
2023/07/12 06:21:03;;;;;;;3.97;1.10;;;18.90;99.90;;;;;;12503527;28;20076;-35
2023/07/12 06:27:06;;;;;;;4.80;0.90;;;19.00;99.90;;;;;;12501275;28;20049;-35
2023/07/12 06:33:09;;;;;;;1.87;0.70;;;19.00;99.90;;;;;;12533590;28;20080;-35
2023/07/12 06:39:11;;;;;;;1.50;0.60;;;19.20;99.90;;;;;;12526197;28;20057;-35
2023/07/12 06:45:13;;;;;;;2.45;0.85;;;19.40;99.90;;;;;;12512595;28;20416;-35
2023/07/12 06:51:14;;;;;;;2.15;1.00;;;19.10;99.90;;;;;;12530461;28;20179;-35
2023/07/12 06:57:16;;;;;;;3.28;0.77;;;19.30;99.90;;;;;;12511274;28;20053;-36
2023/07/12 07:03:18;;;;;;;1.92;0.80;;;19.10;99.90;;;;;;12520643;28;20037;-36
2023/07/12 07:09:20;;;;;;;2.78;1.13;;;19.10;99.90;;;;;;12518528;28;20191;-35
2023/07/12 07:15:22;;;;;;;1.77;0.85;;;19.00;99.90;;;;;;12514877;28;20060;-35
2023/07/12 07:21:24;;;;;;;2.22;1.00;;;19.10;99.90;;;;;;12481770;28;20045;-35
2023/07/12 07:27:26;;;;;;;2.35;1.27;;;18.80;99.90;;;;;;12484282;28;20056;-35
2023/07/12 07:33:28;;;;;;;3.08;1.20;;;18.90;99.90;;;;;;12534877;28;20117;-35
2023/07/12 07:39:31;;;;;;;4.15;2.00;;;18.60;99.90;;;;;;12527771;28;20524;-36
2023/07/12 07:45:33;;;;;;;4.00;1.58;;;18.60;99.90;;;;;;12516165;28;20056;-36
2023/07/12 07:51:36;;;;;;;2.13;1.20;;;18.50;99.90;;;;;;12511408;28;20056;-36
2023/07/12 07:57:38;;;;;;;3.63;1.90;;;18.50;99.90;;;;;;12519957;28;20068;-35
2023/07/12 08:03:39;;;;;;;4.20;1.40;;;18.50;99.90;;;;;;12529992;28;20100;-35
2023/07/12 08:09:42;;;;;;;2.08;1.35;;;18.80;99.90;;;;;;12519299;28;20054;-35
2023/07/12 08:15:44;;;;;;;4.75;1.58;;;19.00;99.90;;;;;;12509438;28;20044;-35
2023/07/12 08:21:47;;;;;;;3.35;1.75;;;19.30;99.90;;;;;;12504495;28;20057;-34
2023/07/12 08:27:49;;;;;;;2.40;1.38;;;19.50;99.90;;;;;;12510430;28;20444;-35
2023/07/12 08:33:51;;;;;;;5.00;1.70;;;19.60;99.90;;;;;;12514326;28;20050;-35
2023/07/12 08:39:53;;;;;;;3.90;1.75;;;19.50;99.90;;;;;;12522771;28;20276;-36
2023/07/12 08:46:04;;;;;;;8.40;2.00;;;19.60;99.90;;;;;;12505490;28;20048;-36
2023/07/12 08:52:18;;;;;;;3.15;1.20;;;19.40;99.90;;;;;;12513865;28;20041;-36
2023/07/12 08:58:50;;;;;;;5.97;1.42;;;19.50;99.90;;;;;;12508613;28;20576;-36
2023/07/12 09:04:57;;;;;;;4.50;1.60;;;19.60;99.90;;;;;;12512687;28;20183;-36
2023/07/12 09:10:59;;;;;;;4.60;1.60;;;19.40;99.90;;;;;;12508609;28;20053;-36
2023/07/12 09:17:02;;;;;;;3.53;1.13;;;20.00;99.90;;;;;;12518063;28;20358;-36
2023/07/12 09:23:09;;;;;;;3.33;1.52;;;20.00;99.90;;;;;;12495585;28;20052;-36
2023/07/12 09:29:20;;;;;;;5.05;1.90;;;19.60;99.90;;;;;;12486808;28;20042;-36
2023/07/12 09:35:40;;;;;;;3.97;1.60;;;19.40;99.90;;;;;;12535537;28;20163;-35
2023/07/12 09:41:50;;;;;;;4.90;1.55;;;19.30;99.90;;;;;;12510005;28;20094;-35
2023/07/12 09:47:53;;;;;;;4.18;1.75;;;19.30;99.90;;;;;;12520282;28;20493;-36
2023/07/12 09:54:09;;;;;;;7.05;1.50;;;19.30;99.90;;;;;;12518068;28;20045;-36
2023/07/12 10:00:32;;;;;;;3.25;1.40;;;19.60;99.90;;;;;;12511487;28;20076;-36
2023/07/12 10:06:42;;;;;;;4.97;1.27;;;19.70;99.90;;;;;;12516583;28;20060;-36
2023/07/12 10:12:53;;;;;;;4.90;1.50;;;20.90;99.90;;;;;;12511141;28;20056;-35
2023/07/12 10:18:57;;;;;;;6.10;1.60;;;21.40;99.90;;;;;;12502656;28;20050;-36
2023/07/12 10:25:00;;;;;;;;;;;21.50;99.90;;;;;;12498297;28;20195;-36
2023/07/12 10:31:16;;;;;;;4.57;1.33;;;21.40;99.90;;;;;;12482141;28;20094;-36
2023/07/12 10:37:30;;;;;;;5.93;1.55;;;21.90;99.90;;;;;;12518170;28;20422;-36
2023/07/12 10:43:45;;;;;;;4.90;1.92;;;21.00;99.90;;;;;;12503772;28;20571;-36
2023/07/12 10:50:04;;;;;;;4.10;1.60;;;21.00;99.90;;;;;;12501144;28;20547;-35
2023/07/12 10:56:13;;;;;;;6.63;1.73;;;21.60;99.90;;;;;;12521144;28;20045;-36
2023/07/12 11:02:28;;;;;;;8.38;2.03;;;22.20;99.90;;;;;;12503990;28;20041;-36
2023/07/12 11:08:30;;;;;;;6.38;1.92;;;22.30;99.90;;;;;;12503082;28;20053;-36
2023/07/12 11:14:38;;;;;;;6.00;1.63;;;21.70;99.90;;;;;;12515246;28;20046;-36
2023/07/12 11:21:17;;;;;;;6.60;1.80;;;21.80;99.90;;;;;;12527721;28;20061;-36
2023/07/12 11:27:40;;;;;;;3.30;1.15;;;22.60;99.90;;;;;;12505220;28;20197;-36
2023/07/12 11:33:48;;;;;;;6.63;1.60;;;23.20;99.90;;;;;;12518396;28;20273;-36
2023/07/12 11:39:51;;;;;;;6.68;1.50;;;22.60;99.90;;;;;;12526672;28;20468;-36
2023/07/12 11:45:55;;;;;;;5.83;1.40;;;23.00;99.90;;;;;;12507772;28;20050;-36
2023/07/12 11:52:04;;;;;;;5.32;1.20;;;23.10;99.90;;;;;;12522325;28;20053;-36
2023/07/12 11:58:24;;;;;;;4.30;1.20;;;23.40;99.90;;;;;;12530019;28;20508;-36
2023/07/12 12:04:30;;;;;;;6.55;1.48;;;22.40;99.90;;;;;;12510335;28;20136;-36
2023/07/12 12:10:36;;;;;;;3.55;1.15;;;22.00;99.90;;;;;;12523751;28;20045;-36
2023/07/12 12:16:38;;;;;;;5.55;1.50;;;22.40;99.90;;;;;;12505160;28;20046;-36
2023/07/12 12:22:42;;;;;;;9.88;1.55;;;22.40;99.90;;;;;;12510804;28;20049;-35
2023/07/12 12:28:55;;;;;;;8.57;1.70;;;22.40;99.90;;;;;;12499346;28;20045;-36
2023/07/12 12:34:59;;;;;;;8.15;1.70;;;23.10;99.90;;;;;;12518411;28;20056;-36
2023/07/12 12:41:17;;;;;;;5.13;1.40;;;23.70;99.90;;;;;;12518839;28;20497;-36
2023/07/12 12:47:22;;;;;;;3.83;1.17;;;23.40;99.90;;;;;;12493563;28;20481;-36
2023/07/12 12:53:23;;;;;;;6.65;1.25;;;22.70;99.90;;;;;;12515411;28;20048;-35
2023/07/12 12:59:28;;;;;;;8.07;1.27;;;22.90;99.90;;;;;;12497959;28;20053;-36
2023/07/12 13:05:33;;;;;;;5.13;1.50;;;22.80;99.90;;;;;;12523211;28;20052;-36
2023/07/12 13:11:36;;;;;;;6.15;1.42;;;22.40;99.90;;;;;;12522141;28;20134;-35
2023/07/12 13:17:42;;;;;;;3.47;1.27;;;22.30;99.90;;;;;;12511492;28;20057;-35
2023/07/12 13:23:47;;;;;;;3.72;1.30;;;22.70;99.90;;;;;;12519542;28;20045;-36
2023/07/12 13:29:50;;;;;;;5.33;1.20;;;22.80;99.90;;;;;;12489049;28;20044;-35
2023/07/12 13:35:52;;;;;;;6.10;1.20;;;23.00;99.90;;;;;;12519704;28;20056;-36
2023/07/12 13:41:58;;;;;;;3.47;1.10;;;23.60;99.90;;;;;;12525955;28;20045;-36
2023/07/12 13:48:15;;;;;;;3.05;0.98;;;23.50;99.90;;;;;;12511372;28;20083;-36
2023/07/12 13:54:20;;;;;;;5.20;1.08;;;23.70;99.90;;;;;;12528522;28;20044;-36
2023/07/12 14:00:23;;;;;;;4.10;1.00;;;23.80;99.90;;;;;;12513296;28;20053;-36
2023/07/12 14:06:28;;;;;;;4.40;1.00;;;23.80;99.90;;;;;;12526412;28;20409;-36
2023/07/12 14:12:50;;;;;;;4.33;1.10;;;23.90;99.90;;;;;;12507903;28;20098;-36
2023/07/12 14:18:52;;;;;;;5.30;0.85;;;23.90;99.90;;;;;;12515826;28;20425;-36
2023/07/12 14:24:56;;;;;;;2.70;1.03;;;23.90;99.90;;;;;;12485648;28;20071;-36
2023/07/12 14:30:58;;;;;;;4.22;1.10;;;24.00;99.90;;;;;;12494660;28;20045;-36
2023/07/12 14:37:04;;;;;;;3.05;0.82;;;23.60;99.90;;;;;;12511541;28;20056;-36
2023/07/12 14:43:11;;;;;;;4.05;0.80;;;23.90;99.90;;;;;;12504285;28;20048;-36
2023/07/12 14:49:13;;;;;;;3.35;0.85;;;23.70;99.90;;;;;;12519567;28;20041;-36
2023/07/12 14:55:17;;;;;;;5.57;0.95;;;23.70;99.90;;;;;;12501950;28;20045;-36
2023/07/12 15:01:27;;;;;;;2.20;0.98;;;23.30;99.90;;;;;;12512603;28;20130;-36
2023/07/12 15:07:40;;;;;;;3.67;1.08;;;23.40;99.90;;;;;;12529319;28;20049;-36
2023/07/12 15:13:43;;;;;;;;;;;23.80;99.90;;;;;;12518528;28;20056;-36
2023/07/12 15:19:45;;;;;;;5.60;1.27;;;23.70;99.90;;;;;;12519949;28;19928;-36
2023/07/12 15:25:47;;;;;;;2.13;0.70;;;23.50;99.90;;;;;;12492946;28;20533;-36
2023/07/12 15:31:49;;;;;;;3.05;1.00;;;23.30;99.90;;;;;;12512109;28;20113;-36
2023/07/12 15:37:57;;;;;;;3.50;0.85;;;23.70;99.90;;;;;;12527762;28;20053;-36
2023/07/12 15:44:00;;;;;;;5.53;1.00;;;23.70;99.90;;;;;;12534197;28;20041;-36
2023/07/12 15:50:03;;;;;;;3.47;1.00;;;23.60;99.90;;;;;;12527022;28;20045;-37
2023/07/12 15:56:05;;;;;;;3.20;0.87;;;23.40;99.90;;;;;;12527538;28;20120;-38
2023/07/12 16:02:16;;;;;;;3.57;1.00;;;23.50;99.90;;;;;;12528195;28;20045;-36
2023/07/12 16:08:20;;;;;;;5.50;1.20;;;23.30;99.90;;;;;;12513261;28;20386;-35
2023/07/12 16:14:23;;;;;;;3.33;1.00;;;22.80;99.90;;;;;;12530869;28;20037;-35
2023/07/12 16:20:25;;;;;;;4.70;1.25;;;23.00;99.90;;;;;;12498328;28;20092;-36
2023/07/12 16:26:33;;;;;;;5.82;1.20;;;22.90;99.90;;;;;;12518315;28;20073;-36
2023/07/12 16:32:35;;;;;;;12.27;2.20;;;22.70;99.90;;;;;;12516490;28;20064;-36
2023/07/12 16:38:37;;;;;;;4.85;1.38;;;22.90;99.90;;;;;;12526800;28;20460;-36
2023/07/12 16:44:40;;;;;;;3.03;1.05;;;23.40;99.90;;;;;;12515729;28;20122;-36
2023/07/12 16:50:45;;;;;;;1.85;0.70;;;23.60;99.90;;;;;;12514354;28;20505;-36
2023/07/12 16:56:47;;;;;;;3.83;1.10;;;23.40;99.90;;;;;;12517558;28;20045;-36
2023/07/12 17:02:49;;;;;;;3.45;1.45;;;22.90;99.90;;;;;;12525962;28;20041;-36
2023/07/12 17:08:52;;;;;;;4.32;1.30;;;22.50;99.90;;;;;;12524101;28;20390;-36
2023/07/12 17:14:53;;;;;;;7.95;1.50;;;23.00;99.90;;;;;;12509957;28;20049;-36
2023/07/12 17:20:56;;;;;;;2.50;1.02;;;22.80;99.90;;;;;;12499202;28;20060;-36
2023/07/12 17:26:58;;;;;;;5.75;1.50;;;23.10;99.90;;;;;;12503331;28;20120;-36
2023/07/12 17:33:01;;;;;;;5.35;1.63;;;22.40;99.90;;;;;;12517511;28;20060;-37
2023/07/12 17:39:03;;;;;;;6.33;1.63;;;22.30;99.90;;;;;;12505302;28;20054;-36
2023/07/12 17:45:17;;;;;;;4.22;1.58;;;22.30;99.90;;;;;;12488343;28;20047;-36
2023/07/12 17:51:22;;;;;;;7.43;1.52;;;21.80;99.90;;;;;;12521685;28;20060;-36
2023/07/12 17:57:24;;;;;;;8.93;1.85;;;21.60;99.90;;;;;;12507007;28;20048;-36
2023/07/12 18:03:27;;;;;;;6.72;1.60;;;21.40;99.90;;;;;;12520833;28;20057;-36
2023/07/12 18:09:29;;;;;;;5.30;1.40;;;21.30;99.90;;;;;;12498782;28;20560;-35
2023/07/12 18:15:31;;;;;;;4.18;1.48;;;21.10;99.90;;;;;;12499637;28;20288;-36
2023/07/12 18:21:35;;;;;;;4.85;1.55;;;21.10;99.90;;;;;;12477389;28;20041;-35
2023/07/12 18:27:37;;;;;;;9.50;1.40;;;21.10;99.90;;;;;;12495998;28;20079;-35
2023/07/12 18:33:39;;;;;;;6.40;1.80;;;21.10;99.90;;;;;;12519952;28;20056;-36
2023/07/12 18:39:45;;;;;;;7.28;1.50;;;21.10;99.90;;;;;;12511250;28;20056;-36
2023/07/12 18:45:47;;;;;;;5.80;1.65;;;21.00;99.90;;;;;;12514080;28;20060;-35
2023/07/12 18:51:50;;;;;;;5.57;1.55;;;21.10;99.90;;;;;;12515392;28;20064;-35
2023/07/12 18:57:54;;;;;;;6.05;1.95;;;20.90;99.90;;;;;;12515504;28;20053;-36
2023/07/12 19:03:57;;;;;;;7.57;1.70;;;20.50;99.90;;;;;;12530015;28;20496;-35
2023/07/12 19:09:59;;;;;;;6.00;1.92;;;20.10;99.90;;;;;;12523787;28;21028;-35
2023/07/12 19:16:02;;;;;;;6.30;1.63;;;20.00;99.90;;;;;;12527905;28;20053;-35
2023/07/12 19:22:06;;;;;;;6.25;1.70;;;20.00;99.90;;;;;;12516195;28;20111;-35
2023/07/12 19:28:08;;;;;;;5.35;1.88;;;20.00;99.90;;;;;;12495986;28;20077;-36
2023/07/12 19:34:15;;;;;;;4.93;1.50;;;20.00;99.90;;;;;;12503754;28;20057;-36
2023/07/12 19:40:17;;;;;;;3.88;1.58;;;20.10;99.90;;;;;;12534127;28;20095;-35
2023/07/12 19:46:19;;;;;;;8.02;1.60;;;20.00;99.90;;;;;;12526057;28;20504;-35
2023/07/12 19:52:23;;;;;;;5.65;1.50;;;19.80;99.90;;;;;;12515616;28;20143;-35
2023/07/12 19:58:26;;;;;;;4.55;1.80;;;19.40;99.90;;;;;;12511892;28;20119;-35
2023/07/12 20:04:28;;;;;;;3.40;1.53;;;19.40;99.90;;;;;;12515563;28;20077;-36
2023/07/12 20:10:30;;;;;;;6.38;1.48;;;19.60;99.90;;;;;;12513161;28;20191;-35
2023/07/12 20:16:32;;;;;;;5.32;2.10;;;19.80;99.90;;;;;;12521745;28;20045;-35
2023/07/12 20:22:34;;;;;;;5.05;1.60;;;19.60;99.90;;;;;;12530160;28;20057;-35
2023/07/12 20:28:40;;;;;;;4.22;1.77;;;19.50;99.90;;;;;;12516371;28;20094;-35
2023/07/12 20:34:42;;;;;;;5.30;1.40;;;19.50;99.90;;;;;;12523209;28;20057;-35
2023/07/12 20:40:45;;;;;;;4.90;1.60;;;19.40;99.90;;;;;;12525555;28;20583;-35
2023/07/12 20:46:47;;;;;;;3.65;1.73;;;19.20;99.90;;;;;;12511643;28;20084;-35
2023/07/12 20:52:50;;;;;;;5.97;1.77;;;19.00;99.90;;;;;;12522016;28;20079;-35
2023/07/12 20:58:53;;;;;;;5.30;1.73;;;19.00;99.90;;;;;;12531593;28;20420;-35
2023/07/12 21:04:55;;;;;;;3.17;1.73;;;19.00;99.90;;;;;;12528896;28;20056;-35
2023/07/12 21:10:59;;;;;;;5.97;2.08;;;19.10;99.90;;;;;;12535798;28;20503;-35
2023/07/12 21:17:01;;;;;;;4.95;1.92;;;19.00;99.90;;;;;;12519351;28;20080;-35
2023/07/12 21:23:04;;;;;;;11.88;2.35;;;19.00;99.90;;;;;;12520943;28;20072;-36
2023/07/12 21:29:08;;;;;;;4.57;1.90;;;19.00;99.90;;;;;;12525536;28;20037;-35
2023/07/12 21:35:10;;;;;;;6.50;1.67;;;19.10;99.90;;;;;;12498967;28;20524;-35
2023/07/12 21:41:14;;;;;;;6.75;2.05;;;19.20;99.90;;;;;;12519287;28;20042;-35
2023/07/12 21:47:16;;;;;;;6.38;2.00;;;19.30;99.90;;;;;;12499301;28;20538;-35
2023/07/12 21:53:23;;;;;;;5.47;1.98;;;19.30;99.90;;;;;;12526158;28;20148;-35
2023/07/12 21:59:25;;;;;;;3.50;1.80;;;19.00;99.90;;;;;;12515107;28;20136;-34
2023/07/12 22:05:27;;;;;;;4.47;1.60;;;19.00;99.90;;;;;;12524417;28;20098;-35
2023/07/12 22:11:29;;;;;;;5.55;1.95;;;19.00;99.90;;;;;;12527444;28;20083;-35
2023/07/12 22:17:31;;;;;;;8.07;1.70;;;18.90;99.90;;;;;;12507249;28;20316;-35
2023/07/12 22:23:34;;;;;;;5.93;1.90;;;18.80;99.90;;;;;;12487963;28;20054;-36
2023/07/12 22:29:37;;;;;;;4.68;1.60;;;18.90;99.90;;;;;;12513340;28;20136;-35
2023/07/12 22:35:39;;;;;;;4.85;1.67;;;18.90;99.90;;;;;;12517104;28;20056;-35
2023/07/12 22:41:41;;;;;;;5.22;1.77;;;18.90;99.90;;;;;;12523960;28;20132;-35
2023/07/12 22:47:44;;;;;;;4.38;1.70;;;18.70;99.90;;;;;;12506571;28;20053;-35
2023/07/12 22:53:46;;;;;;;4.47;1.70;;;18.40;99.90;;;;;;12522422;28;20049;-35
2023/07/12 22:59:48;;;;;;;4.75;1.70;;;18.40;99.90;;;;;;12518642;28;20053;-35
2023/07/12 23:05:57;;;;;;;6.85;1.50;;;18.50;99.90;;;;;;12516686;28;20063;-35
2023/07/12 23:12:07;;;;;;;5.13;1.92;;;18.40;99.90;;;;;;12531206;28;20110;-35
2023/07/12 23:18:12;;;;;;;5.80;1.65;;;18.40;99.90;;;;;;12523423;28;20102;-35
2023/07/12 23:24:14;;;;;;;4.18;1.33;;;18.40;99.90;;;;;;12519885;28;20330;-34
2023/07/12 23:30:16;;;;;;;5.32;1.88;;;18.40;99.90;;;;;;12495007;28;20037;-35
2023/07/12 23:36:20;;;;;;;5.85;1.80;;;18.50;99.90;;;;;;12526931;28;20068;-35
2023/07/12 23:42:22;;;;;;;5.10;1.60;;;18.20;99.90;;;;;;12531029;28;20385;-35
2023/07/12 23:48:24;;;;;;;4.57;2.00;;;18.10;99.90;;;;;;12517529;28;20183;-35
2023/07/12 23:54:28;;;;;;;8.45;2.00;;;18.10;99.90;;;;;;12518956;28;20048;-34
